Time;durP1;ratioP1;P1;durP2;ratioP2;P2;SDS_P1;SDS_P2;PMS_P1;PMS_P2;Temp;Humidity;BMP_temperature;BMP_pressure;BME280_temperature;BME280_humidity;BME280_pressure;Samples;Min_cycle;Max_cycle;Signal;HPM_P1;HPM_P2
2021/08/12 00:00:18;;;;;;;5.93;0.70;;;;;;;18.78;53.97;100336.56;5152347;27;20031;-59
2021/08/12 00:02:44;;;;;;;2.40;0.50;;;;;;;18.78;53.63;100338.41;5154843;27;20087;-59
2021/08/12 00:05:10;;;;;;;1.83;0.60;;;;;;;18.77;53.84;100331.41;5156534;27;20450;-58
2021/08/12 00:07:36;;;;;;;1.95;0.70;;;;;;;18.77;54.04;100331.41;5156480;27;20400;-59
2021/08/12 00:10:03;;;;;;;2.13;0.70;;;;;;;18.77;54.13;100329.56;5156357;27;20061;-59
2021/08/12 00:12:28;;;;;;;4.10;0.63;;;;;;;18.75;53.95;100317.41;5137947;27;20091;-59
2021/08/12 00:14:54;;;;;;;1.52;0.60;;;;;;;18.75;53.88;100318.25;5156139;27;20493;-59
2021/08/12 00:17:20;;;;;;;1.95;0.80;;;;;;;18.74;53.79;100315.75;5137366;27;20054;-58
2021/08/12 00:19:46;;;;;;;0.82;0.40;;;;;;;18.75;53.85;100322.75;5156025;27;20081;-59
2021/08/12 00:22:12;;;;;;;2.25;0.80;;;;;;;18.73;54.03;100322.97;5156158;27;20392;-59
2021/08/12 00:24:38;;;;;;;3.50;1.33;;;;;;;18.74;53.83;100318.44;5155891;27;20023;-59
2021/08/12 00:27:04;;;;;;;2.13;0.70;;;;;;;18.74;53.93;100318.44;5155585;27;20034;-58
2021/08/12 00:29:31;;;;;;;1.55;0.50;;;;;;;18.73;53.87;100312.25;5137335;27;20039;-59
2021/08/12 00:32:02;;;;;;;3.90;0.65;;;;;;;18.72;53.63;100314.13;5155654;27;20069;-59
2021/08/12 00:34:29;;;;;;;2.70;0.77;;;;;;;18.71;53.72;100308.97;5139176;27;20038;-59
2021/08/12 00:36:56;;;;;;;3.00;0.60;;;;;;;18.72;53.80;100299.91;5154362;27;20062;-59
2021/08/12 00:39:22;;;;;;;1.25;0.63;;;;;;;18.70;53.81;100302.78;5154412;27;20065;-58
2021/08/12 00:41:48;;;;;;;5.68;0.57;;;;;;;18.69;53.86;100293.09;5154494;27;20031;-59
2021/08/12 00:44:15;;;;;;;3.08;0.70;;;;;;;18.68;53.73;100290.63;5154210;27;20105;-59
2021/08/12 00:46:41;;;;;;;2.03;0.80;;;;;;;18.66;53.70;100301.53;5154253;27;20106;-59
2021/08/12 00:49:12;;;;;;;1.63;0.60;;;;;;;18.66;53.69;100301.53;5155308;27;20514;-59
2021/08/12 00:51:40;;;;;;;3.40;0.60;;;;;;;18.64;53.95;100284.03;5136978;27;20095;-58
2021/08/12 00:54:06;;;;;;;1.25;0.55;;;;;;;18.65;54.18;100285.69;5136919;27;20062;-59
2021/08/12 00:56:33;;;;;;;2.45;0.63;;;;;;;18.65;53.69;100280.34;5155830;27;20034;-59
2021/08/12 00:58:59;;;;;;;4.13;1.13;;;;;;;18.65;54.16;100281.13;5119715;27;20041;-59
2021/08/12 01:01:25;;;;;;;2.95;0.88;;;;;;;18.65;54.18;100274.97;5136605;27;20038;-59
2021/08/12 01:03:51;;;;;;;2.55;0.65;;;;;;;18.64;54.18;100270.63;5119492;27;20038;-58
2021/08/12 01:06:24;;;;;;;1.70;0.70;;;;;;;18.64;54.26;100274.16;5119798;27;20027;-59
2021/08/12 01:09:16;;;;;;;5.05;1.15;;;;;;;18.64;54.36;100273.31;5136761;27;20030;-59
2021/08/12 01:11:58;;;;;;;3.10;0.80;;;;;;;18.60;54.24;100262.19;5136543;27;20027;-59
2021/08/12 01:14:31;;;;;;;2.90;0.82;;;;;;;18.60;54.18;100263.00;5136563;27;20034;-58
2021/08/12 01:17:03;;;;;;;5.03;0.60;;;;;;;18.59;54.27;100253.34;5136356;27;20030;-59
2021/08/12 01:20:00;;;;;;;1.10;0.50;;;;;;;18.59;54.40;100260.53;5136521;27;20042;-58
2021/08/12 01:22:27;;;;;;;1.20;0.47;;;;;;;18.59;54.52;100252.50;5136206;27;20114;-59
2021/08/12 01:25:00;;;;;;;2.25;0.73;;;;;;;18.56;54.39;100259.09;5136242;27;20114;-59
2021/08/12 01:27:30;;;;;;;1.42;0.50;;;;;;;18.56;54.59;100259.09;5136080;27;20054;-59
2021/08/12 01:30:06;;;;;;;3.00;0.82;;;;;;;18.55;54.51;100245.91;5118764;27;20556;-59
2021/08/12 01:32:51;;;;;;;2.10;0.77;;;;;;;18.55;54.58;100241.41;5136068;27;20038;-59
2021/08/12 01:35:20;;;;;;;2.80;0.75;;;;;;;18.55;54.77;100244.06;5127109;27;20490;-58
2021/08/12 01:38:00;;;;;;;2.67;0.70;;;;;;;18.54;54.72;100249.63;5135913;27;20087;-58
2021/08/12 01:40:29;;;;;;;2.80;0.82;;;;;;;18.54;54.67;100244.28;5135870;27;20026;-59
2021/08/12 01:42:56;;;;;;;1.55;0.55;;;;;;;18.53;54.85;100238.09;5136087;27;20067;-57
2021/08/12 01:45:23;;;;;;;2.55;0.60;;;;;;;18.53;54.87;100238.09;5153063;27;20378;-58
2021/08/12 01:47:50;;;;;;;2.55;0.60;;;;;;;18.52;54.73;100228.41;5145758;27;20031;-58
2021/08/12 01:50:17;;;;;;;2.47;0.60;;;;;;;18.54;54.80;100225.53;5135551;27;20453;-58
2021/08/12 01:52:48;;;;;;;4.65;0.70;;;;;;;18.51;54.91;100224.06;5154496;27;20033;-58
2021/08/12 01:55:18;;;;;;;2.78;0.80;;;;;;;18.50;54.75;100226.97;5135708;27;20042;-59
2021/08/12 01:57:47;;;;;;;3.35;0.68;;;;;;;18.47;54.45;100223.66;5136435;27;20404;-59
2021/08/12 02:00:15;;;;;;;3.80;1.00;;;;;;;18.44;54.74;100216.03;5135545;27;20083;-59
2021/08/12 02:02:44;;;;;;;1.75;0.60;;;;;;;18.42;54.58;100225.28;5154130;27;20366;-58
2021/08/12 02:05:16;;;;;;;3.80;1.02;;;;;;;18.34;54.78;100224.47;5135615;27;20035;-59
2021/08/12 02:07:45;;;;;;;3.40;0.90;;;;;;;18.38;54.56;100224.06;5135369;27;20131;-58
2021/08/12 02:10:14;;;;;;;2.53;0.70;;;;;;;18.33;54.77;100222.00;5118365;27;20027;-59
2021/08/12 02:12:40;;;;;;;2.78;0.60;;;;;;;18.30;55.00;100217.84;5135272;27;20114;-59
2021/08/12 02:15:08;;;;;;;2.50;0.73;;;;;;;18.31;54.82;100221.34;5135623;27;20038;-58
2021/08/12 02:17:34;;;;;;;4.88;0.93;;;;;;;18.31;55.04;100224.03;5135108;27;20051;-59
2021/08/12 02:20:06;;;;;;;4.20;1.00;;;;;;;18.30;54.96;100225.06;5135177;27;20078;-59
2021/08/12 02:22:47;;;;;;;3.97;1.33;;;;;;;18.32;55.40;100221.16;5153578;27;20500;-58
2021/08/12 02:25:53;;;;;;;3.92;0.90;;;;;;;18.33;55.24;100216.66;5134747;27;20099;-58
2021/08/12 02:28:20;;;;;;;4.93;0.90;;;;;;;18.29;55.13;100218.06;5134378;27;20066;-58
2021/08/12 02:30:50;;;;;;;4.65;0.82;;;;;;;18.26;55.08;100221.97;5135043;27;20047;-59
2021/08/12 02:33:19;;;;;;;3.33;1.00;;;;;;;18.27;55.34;100206.75;5134981;27;20022;-59
2021/08/12 02:35:48;;;;;;;2.00;0.82;;;;;;;18.29;55.24;100204.66;5147780;27;20034;-59
2021/08/12 02:38:15;;;;;;;3.60;1.10;;;;;;;18.27;55.21;100202.19;5152017;27;20034;-59
2021/08/12 02:40:45;;;;;;;3.53;0.90;;;;;;;18.26;55.08;100195.22;5152045;27;20046;-59
2021/08/12 02:43:13;;;;;;;2.45;0.93;;;;;;;18.26;55.25;100197.06;5153531;27;20066;-59
2021/08/12 02:45:42;;;;;;;3.08;1.02;;;;;;;18.25;55.46;100190.06;5151984;27;20515;-59
2021/08/12 02:48:09;;;;;;;2.88;0.70;;;;;;;18.25;55.39;100184.72;5142010;27;20030;-59
2021/08/12 02:50:39;;;;;;;3.40;0.88;;;;;;;18.27;55.46;100182.66;5153252;27;20091;-59
2021/08/12 02:53:05;;;;;;;4.25;0.95;;;;;;;18.27;55.59;100180.78;5134545;27;20038;-59
2021/08/12 02:55:33;;;;;;;3.50;1.23;;;;;;;18.28;55.64;100179.78;5135301;27;20441;-60
2021/08/12 02:58:01;;;;;;;5.78;1.00;;;;;;;18.29;55.65;100184.09;5134735;27;20039;-59
2021/08/12 03:00:28;;;;;;;3.75;1.13;;;;;;;18.27;55.56;100177.31;5134456;27;20470;-59
2021/08/12 03:02:54;;;;;;;5.78;1.13;;;;;;;18.27;55.54;100169.28;5134773;27;20500;-59
2021/08/12 03:05:20;;;;;;;4.30;0.82;;;;;;;18.23;55.53;100168.88;5134745;27;20391;-59
2021/08/12 03:07:47;;;;;;;4.43;0.90;;;;;;;18.22;55.45;100170.72;5152958;27;20038;-59
2021/08/12 03:10:17;;;;;;;2.13;1.00;;;;;;;18.23;55.53;100171.53;5117481;27;20422;-59
2021/08/12 03:12:43;;;;;;;2.92;0.77;;;;;;;18.21;55.36;100176.25;5117602;27;20123;-59
2021/08/12 03:15:11;;;;;;;2.95;0.75;;;;;;;18.21;55.84;100166.41;5134328;27;20030;-59
2021/08/12 03:17:38;;;;;;;4.03;1.08;;;;;;;18.23;55.82;100160.84;5134258;27;20609;-59
2021/08/12 03:20:06;;;;;;;3.58;0.75;;;;;;;18.22;55.63;100156.50;5134533;27;20042;-59
2021/08/12 03:22:33;;;;;;;4.30;0.80;;;;;;;18.23;55.79;100160.84;5134190;27;20563;-60
2021/08/12 03:25:00;;;;;;;7.05;1.35;;;;;;;18.22;55.67;100145.78;5116838;27;20401;-59
2021/08/12 03:27:27;;;;;;;3.70;1.00;;;;;;;18.21;55.83;100146.84;5130515;28;20126;-59
2021/08/12 03:29:52;;;;;;;5.60;1.08;;;;;;;18.20;55.83;100145.19;5131831;27;20123;-59
2021/08/12 03:32:20;;;;;;;4.35;0.90;;;;;;;18.19;55.86;100143.53;5130669;28;20031;-59
2021/08/12 03:34:47;;;;;;;4.38;1.02;;;;;;;18.17;55.90;100143.72;5131868;27;20138;-59
2021/08/12 03:37:15;;;;;;;4.15;1.13;;;;;;;18.18;55.88;100139.22;5132360;27;20067;-59
2021/08/12 03:39:41;;;;;;;3.28;0.90;;;;;;;18.17;55.70;100134.91;5134963;27;20551;-59
2021/08/12 03:42:07;;;;;;;5.00;1.23;;;;;;;18.17;56.12;100140.25;5135911;27;20031;-59
2021/08/12 03:44:33;;;;;;;2.88;0.82;;;;;;;18.13;55.78;100122.94;5135972;27;20031;-59
2021/08/12 03:46:59;;;;;;;7.78;1.17;;;;;;;18.10;55.60;100127.66;5134950;27;20027;-59
2021/08/12 03:49:25;;;;;;;5.38;1.08;;;;;;;18.08;56.03;100123.53;5134793;27;20473;-59
2021/08/12 03:51:52;;;;;;;5.85;1.30;;;;;;;18.07;55.77;100120.03;5134686;27;20027;-59
2021/08/12 03:54:18;;;;;;;4.43;1.10;;;;;;;18.07;55.94;100112.03;5134478;27;20035;-58
2021/08/12 03:56:44;;;;;;;5.32;1.15;;;;;;;18.04;55.92;100114.25;5135318;27;20452;-59
2021/08/12 03:59:10;;;;;;;3.83;1.17;;;;;;;18.06;56.11;100110.34;5134547;27;20068;-59
2021/08/12 04:01:36;;;;;;;2.60;0.80;;;;;;;18.08;56.30;100112.81;5134368;27;20059;-58
2021/08/12 04:04:03;;;;;;;6.07;1.10;;;;;;;18.07;56.06;100114.69;5134460;27;20408;-59
2021/08/12 04:06:29;;;;;;;5.80;1.27;;;;;;;18.05;55.99;100114.06;5134638;27;20122;-59
2021/08/12 04:08:55;;;;;;;5.57;1.10;;;;;;;18.05;56.31;100100.69;5117165;27;20504;-59
2021/08/12 04:11:21;;;;;;;6.60;1.75;;;;;;;18.02;56.29;100101.09;5117060;27;20088;-59
2021/08/12 04:13:47;;;;;;;4.22;1.02;;;;;;;18.02;56.08;100100.25;5134207;27;20082;-58
2021/08/12 04:16:13;;;;;;;3.78;1.02;;;;;;;17.97;56.29;100101.72;5134154;27;20032;-59
2021/08/12 04:18:39;;;;;;;4.78;1.20;;;;;;;17.95;56.30;100097.56;5135370;27;20150;-59
2021/08/12 04:21:05;;;;;;;5.10;1.23;;;;;;;17.93;56.19;100097.78;5133999;27;20434;-59
2021/08/12 04:23:32;;;;;;;6.35;1.10;;;;;;;17.87;56.54;100103.13;5135258;27;20027;-59
2021/08/12 04:25:58;;;;;;;7.78;2.20;;;;;;;17.86;56.24;100102.28;5134009;27;20043;-59
2021/08/12 04:28:23;;;;;;;8.20;1.25;;;;;;;17.84;56.62;100109.66;5133719;27;20035;-59
2021/08/12 04:30:49;;;;;;;5.00;1.40;;;;;;;17.83;56.55;100100.84;5133832;27;20481;-60
2021/08/12 04:33:17;;;;;;;4.18;1.00;;;;;;;17.85;56.80;100111.34;5133852;27;20377;-59
2021/08/12 04:35:44;;;;;;;5.43;1.20;;;;;;;17.85;56.78;100100.66;5116526;27;20027;-59
2021/08/12 04:38:10;;;;;;;3.28;0.70;;;;;;;17.84;56.87;100090.97;5133964;27;20403;-59
2021/08/12 04:40:36;;;;;;;5.28;1.17;;;;;;;17.83;56.54;100090.16;5133927;27;20035;-59
2021/08/12 04:43:02;;;;;;;5.00;1.20;;;;;;;17.81;56.65;100086.00;5133965;27;20196;-59
2021/08/12 04:45:28;;;;;;;5.13;1.13;;;;;;;17.85;56.66;100079.25;5133684;27;20035;-58
2021/08/12 04:48:02;;;;;;;3.42;0.70;;;;;;;17.84;56.86;100065.06;5134064;27;20079;-59
2021/08/12 04:50:33;;;;;;;2.72;0.82;;;;;;;17.86;56.82;100062.19;5133415;27;20070;-59
2021/08/12 04:52:59;;;;;;;4.03;1.20;;;;;;;17.87;56.88;100060.34;5133495;27;20027;-59
2021/08/12 04:55:25;;;;;;;5.85;1.08;;;;;;;17.88;56.93;100048.63;5116279;27;20122;-59
2021/08/12 04:57:51;;;;;;;5.13;1.00;;;;;;;17.88;56.28;100046.78;5134988;27;20027;-59
2021/08/12 05:00:17;;;;;;;4.00;0.90;;;;;;;17.87;56.81;100033.59;5133398;27;20046;-59
2021/08/12 05:02:43;;;;;;;3.83;1.17;;;;;;;17.87;56.82;100039.75;5133255;27;20046;-59
2021/08/12 05:05:10;;;;;;;3.33;0.90;;;;;;;17.87;56.83;100025.59;5133234;27;20401;-59
2021/08/12 05:07:37;;;;;;;4.72;1.20;;;;;;;17.84;56.87;100029.47;5133072;27;20043;-59
2021/08/12 05:10:03;;;;;;;5.13;0.73;;;;;;;17.82;56.62;100023.53;5115935;27;20098;-59
2021/08/12 05:12:29;;;;;;;5.18;1.17;;;;;;;17.82;56.34;100023.53;5133075;27;20043;-59
2021/08/12 05:14:58;;;;;;;5.63;1.23;;;;;;;17.81;56.50;100022.69;5133161;27;20042;-59
2021/08/12 05:17:23;;;;;;;7.55;1.20;;;;;;;17.76;56.75;100011.78;5132977;27;20478;-59
2021/08/12 05:19:49;;;;;;;4.07;1.10;;;;;;;17.75;56.40;100018.16;5132951;27;20041;-59
2021/08/12 05:22:22;;;;;;;7.10;1.27;;;;;;;17.70;56.73;100016.09;5132860;27;20484;-59
2021/08/12 05:24:50;;;;;;;3.08;0.80;;;;;;;17.71;56.63;100016.94;5132908;27;20035;-59
2021/08/12 05:27:17;;;;;;;4.32;0.95;;;;;;;17.68;56.66;100018.13;5132678;27;20035;-59
2021/08/12 05:29:43;;;;;;;6.53;1.40;;;;;;;17.65;56.89;100015.88;5132612;27;20035;-59
2021/08/12 05:32:09;;;;;;;5.32;1.40;;;;;;;17.65;56.77;100015.03;5132746;27;20042;-59
2021/08/12 05:34:35;;;;;;;5.75;1.00;;;;;;;17.63;56.82;100017.91;5134143;27;20023;-59
2021/08/12 05:37:01;;;;;;;3.10;0.80;;;;;;;17.61;57.07;100017.31;5132533;27;20420;-60
2021/08/12 05:39:27;;;;;;;5.13;1.27;;;;;;;17.58;56.94;100023.88;5132563;27;20504;-59
2021/08/12 05:41:54;;;;;;;7.07;1.08;;;;;;;17.57;57.07;100026.75;5132575;27;20381;-59
2021/08/12 05:44:21;;;;;;;6.53;1.27;;;;;;;17.54;57.48;100027.97;5132590;27;20031;-59
2021/08/12 05:46:47;;;;;;;6.10;1.70;;;;;;;17.47;57.94;100025.28;5132253;27;20038;-59
2021/08/12 05:49:13;;;;;;;7.15;1.38;;;;;;;17.50;57.59;100028.56;5132375;27;20039;-59
2021/08/12 05:51:39;;;;;;;6.00;1.25;;;;;;;17.50;57.77;100031.25;5133481;27;20038;-60
2021/08/12 05:54:09;;;;;;;6.65;1.30;;;;;;;17.48;57.81;100028.78;5133584;27;20374;-59
2021/08/12 05:56:37;;;;;;;4.50;1.15;;;;;;;17.48;57.87;100026.09;5132989;27;20400;-59
2021/08/12 05:59:03;;;;;;;7.00;1.40;;;;;;;17.48;57.92;100026.09;5131235;27;20477;-60
2021/08/12 06:01:29;;;;;;;6.13;0.90;;;;;;;17.47;58.10;100027.94;5132019;27;20039;-60
2021/08/12 06:03:57;;;;;;;5.95;1.20;;;;;;;17.49;57.94;100025.06;5132073;27;20031;-60
2021/08/12 06:06:23;;;;;;;5.70;1.45;;;;;;;17.50;58.08;100021.41;5132014;27;20042;-59
2021/08/12 06:08:49;;;;;;;11.43;1.35;;;;;;;17.44;58.36;100019.53;5131947;27;20027;-59
2021/08/12 06:11:15;;;;;;;5.43;1.55;;;;;;;17.43;58.43;100013.34;5133026;27;20031;-60
2021/08/12 06:13:41;;;;;;;5.15;1.10;;;;;;;17.44;58.38;100017.66;5131827;27;20031;-60
2021/08/12 06:16:10;;;;;;;6.05;1.63;;;;;;;17.43;58.45;100009.84;5131867;27;20110;-60
2021/08/12 06:18:36;;;;;;;5.60;1.25;;;;;;;17.43;58.87;100010.69;5131682;27;20114;-60
2021/08/12 06:21:02;;;;;;;8.90;1.42;;;;;;;17.39;58.73;100014.75;5131680;27;20092;-60
2021/08/12 06:23:28;;;;;;;6.05;1.55;;;;;;;17.39;58.89;100005.94;5131820;27;20035;-60
2021/08/12 06:25:54;;;;;;;7.32;1.10;;;;;;;17.40;59.07;100013.75;5132849;27;20031;-60
2021/08/12 06:28:20;;;;;;;7.32;1.20;;;;;;;17.37;59.40;100024.84;5147348;27;20377;-60
2021/08/12 06:30:46;;;;;;;6.15;1.30;;;;;;;17.34;59.61;100023.38;5135070;27;20049;-60
2021/08/12 06:33:13;;;;;;;10.57;1.63;;;;;;;17.34;59.74;100023.38;5135107;27;20042;-60
2021/08/12 06:35:40;;;;;;;7.55;1.58;;;;;;;17.33;60.00;100020.91;5146639;27;20030;-59
2021/08/12 06:38:07;;;;;;;5.32;1.55;;;;;;;17.32;59.91;100024.59;5152155;27;20034;-60
2021/08/12 06:40:33;;;;;;;4.82;1.13;;;;;;;17.34;59.50;100022.56;5153238;27;20071;-60
2021/08/12 06:42:59;;;;;;;4.60;1.27;;;;;;;17.31;59.98;100013.09;5152330;27;20077;-60
2021/08/12 06:45:26;;;;;;;6.25;1.30;;;;;;;17.29;60.31;100023.16;5152057;27;20027;-57
2021/08/12 06:47:53;;;;;;;7.35;1.48;;;;;;;17.30;60.13;100011.44;5153050;27;20492;-59
2021/08/12 06:50:24;;;;;;;5.78;1.20;;;;;;;17.29;60.26;100008.97;5134721;27;20038;-59
2021/08/12 06:52:50;;;;;;;7.53;2.08;;;;;;;17.30;60.17;100005.28;5134655;27;20089;-60
2021/08/12 06:55:16;;;;;;;6.60;1.42;;;;;;;17.31;60.04;100009.63;5153094;27;20061;-59
2021/08/12 06:57:42;;;;;;;5.93;1.13;;;;;;;17.27;60.82;100003.00;5135136;27;20054;-59
2021/08/12 07:00:10;;;;;;;5.65;1.08;;;;;;;17.28;60.75;99999.34;5134273;27;20062;-59
2021/08/12 07:02:37;;;;;;;7.00;1.23;;;;;;;17.27;60.57;99997.66;5131360;27;20043;-59
2021/08/12 07:05:03;;;;;;;5.97;1.40;;;;;;;17.26;60.97;100001.38;5134563;27;20026;-59
2021/08/12 07:07:29;;;;;;;5.13;1.27;;;;;;;17.25;61.17;99997.06;5133960;27;20041;-59
2021/08/12 07:09:54;;;;;;;9.68;1.80;;;;;;;17.24;61.01;99990.88;5133805;27;20035;-59
2021/08/12 07:12:22;;;;;;;8.43;1.52;;;;;;;17.24;61.07;99988.22;5134189;27;20477;-59
2021/08/12 07:14:48;;;;;;;7.95;1.17;;;;;;;17.22;61.18;99993.75;5134325;27;20035;-59
2021/08/12 07:17:16;;;;;;;5.90;1.20;;;;;;;17.24;61.32;99977.53;5134292;27;20485;-60
2021/08/12 07:19:42;;;;;;;6.55;1.50;;;;;;;17.26;61.14;99983.50;5134552;27;20400;-60
2021/08/12 07:22:08;;;;;;;8.15;1.90;;;;;;;17.26;61.51;99977.34;5152625;27;20035;-59
2021/08/12 07:24:34;;;;;;;7.60;1.38;;;;;;;17.23;62.01;99979.38;5134365;27;20038;-59
2021/08/12 07:27:00;;;;;;;6.68;1.45;;;;;;;17.27;61.57;99965.63;5134091;27;20082;-59
2021/08/12 07:29:26;;;;;;;6.78;1.70;;;;;;;17.27;61.71;99970.97;5133995;27;20026;-60
2021/08/12 07:31:52;;;;;;;8.85;1.67;;;;;;;17.25;61.84;99967.69;5117385;27;20038;-59
2021/08/12 07:34:19;;;;;;;9.32;1.60;;;;;;;17.22;61.59;99967.06;5134284;27;20026;-60
2021/08/12 07:36:46;;;;;;;5.80;1.63;;;;;;;17.21;61.63;99960.06;5155296;27;20022;-59
2021/08/12 07:39:13;;;;;;;11.77;1.48;;;;;;;17.21;61.60;99959.25;5153617;27;20022;-59
2021/08/12 07:41:42;;;;;;;8.25;1.70;;;;;;;17.22;61.88;99959.03;5149002;27;20070;-59
2021/08/12 07:44:08;;;;;;;6.97;1.90;;;;;;;17.19;61.89;99951.44;5141092;27;20042;-59
2021/08/12 07:46:34;;;;;;;6.38;1.40;;;;;;;17.23;61.89;99951.84;5147068;27;20042;-60
2021/08/12 07:49:01;;;;;;;7.53;1.65;;;;;;;17.22;62.14;99952.88;5145080;27;20034;-58
2021/08/12 07:51:27;;;;;;;5.47;1.23;;;;;;;17.25;62.09;99940.97;5144314;27;20676;-60
2021/08/12 07:53:53;;;;;;;12.98;2.08;;;;;;;17.23;62.39;99939.31;5159059;27;20113;-59
2021/08/12 07:56:20;;;;;;;8.82;1.58;;;;;;;17.22;62.38;99929.66;5138735;27;20042;-60
2021/08/12 07:58:47;;;;;;;8.25;1.73;;;;;;;17.20;62.46;99934.38;5162585;27;20026;-59
2021/08/12 08:01:15;;;;;;;8.75;2.35;;;;;;;17.19;62.12;99921.22;5161396;27;20030;-60
2021/08/12 08:04:06;;;;;;;9.25;1.40;;;;;;;17.18;62.42;99907.06;5137574;27;20046;-60
2021/08/12 08:06:32;;;;;;;10.13;2.05;;;;;;;17.22;62.17;99913.63;5164133;27;20074;-60
2021/08/12 08:08:58;;;;;;;11.30;2.10;;;;;;;17.20;61.91;99921.00;5166882;27;20030;-60
2021/08/12 08:11:23;;;;;;;7.20;1.52;;;;;;;17.22;62.20;99902.13;5148813;27;20027;-60
2021/08/12 08:13:49;;;;;;;8.75;1.80;;;;;;;17.21;61.78;99895.97;5111834;27;20028;-60
2021/08/12 08:16:15;;;;;;;7.68;1.63;;;;;;;17.22;61.49;99904.78;5151160;27;20027;-60
2021/08/12 08:18:41;;;;;;;8.27;1.70;;;;;;;17.20;61.83;99891.66;5151602;27;20080;-61
2021/08/12 08:21:10;;;;;;;8.15;1.92;;;;;;;17.21;61.79;99887.97;5151910;27;20026;-61
2021/08/12 08:23:36;;;;;;;6.63;1.45;;;;;;;17.22;61.72;99883.44;5131292;27;20054;-60
2021/08/12 08:26:21;;;;;;;5.45;1.40;;;;;;;17.21;61.80;99876.44;5134163;27;20031;-61
2021/08/12 08:28:47;;;;;;;9.45;1.48;;;;;;;17.22;61.67;99880.75;5134551;27;20071;-61
2021/08/12 08:31:12;;;;;;;9.80;1.67;;;;;;;17.21;61.68;99887.13;5155300;27;20145;-60
2021/08/12 08:33:38;;;;;;;9.82;1.75;;;;;;;17.17;61.69;99886.72;5154649;27;20390;-61
2021/08/12 08:36:04;;;;;;;13.32;2.65;;;;;;;17.18;61.63;99892.88;5154594;27;20030;-60
2021/08/12 08:38:30;;;;;;;9.43;1.63;;;;;;;17.16;61.62;99894.91;5155043;27;20106;-60
2021/08/12 08:40:57;;;;;;;8.95;2.00;;;;;;;17.14;61.35;99900.47;5155101;27;20390;-60
2021/08/12 08:43:24;;;;;;;11.55;1.98;;;;;;;17.16;61.80;99882.41;5136096;27;20080;-61
2021/08/12 08:45:52;;;;;;;8.88;1.98;;;;;;;17.16;61.82;99901.09;5154208;27;20031;-60
2021/08/12 08:48:19;;;;;;;13.13;2.38;;;;;;;17.15;61.91;99906.63;5154922;27;20551;-61
2021/08/12 08:50:45;;;;;;;7.32;1.90;;;;;;;17.19;62.14;99910.53;5155033;27;20135;-60
2021/08/12 08:53:18;;;;;;;14.13;2.10;;;;;;;17.23;62.16;99901.13;5154566;27;20053;-61
2021/08/12 08:55:46;;;;;;;9.73;2.38;;;;;;;17.22;62.22;99896.78;5154176;27;20113;-61
2021/08/12 08:58:12;;;;;;;8.50;2.00;;;;;;;17.21;62.49;99887.97;5154724;27;20034;-61
2021/08/12 09:00:38;;;;;;;8.68;1.92;;;;;;;17.20;62.41;99882.84;5154706;27;20035;-61
2021/08/12 09:03:04;;;;;;;9.43;2.13;;;;;;;17.19;62.28;99871.31;5154326;27;20035;-61
2021/08/12 09:05:29;;;;;;;9.07;2.30;;;;;;;17.20;62.59;99864.94;5153743;27;20053;-61
2021/08/12 09:07:55;;;;;;;9.85;1.90;;;;;;;17.23;62.56;99863.72;5154615;27;20396;-61
2021/08/12 09:10:21;;;;;;;8.98;1.67;;;;;;;17.23;62.58;99872.53;5154551;27;20075;-61
2021/08/12 09:12:49;;;;;;;12.23;2.75;;;;;;;17.26;62.79;99863.31;5159279;27;20022;-61
2021/08/12 09:15:23;;;;;;;8.95;2.03;;;;;;;17.31;62.82;99854.69;5142714;27;20031;-61
2021/08/12 09:17:57;;;;;;;6.78;2.05;;;;;;;17.28;63.00;99863.91;5153369;27;20396;-61
2021/08/12 09:20:25;;;;;;;9.35;1.85;;;;;;;17.31;62.93;99849.34;5154330;27;20038;-60
2021/08/12 09:22:52;;;;;;;8.60;1.95;;;;;;;17.33;63.10;99842.78;5153996;27;20083;-60
2021/08/12 09:25:34;;;;;;;9.68;2.00;;;;;;;17.34;63.28;99839.06;5157350;27;20046;-61
2021/08/12 09:28:17;;;;;;;9.75;1.90;;;;;;;17.33;62.93;99837.44;5148716;27;20062;-61
2021/08/12 09:31:07;;;;;;;8.50;2.20;;;;;;;17.35;63.37;99837.22;5145407;27;20038;-61
2021/08/12 09:33:39;;;;;;;14.20;3.63;;;;;;;17.36;63.11;99841.53;5146757;27;20078;-62
2021/08/12 09:36:39;;;;;;;8.55;2.30;;;;;;;17.36;62.70;99841.53;5163791;27;20026;-61
2021/08/12 09:39:12;;;;;;;10.68;2.25;;;;;;;17.34;62.67;99849.75;5167538;27;20030;-61
2021/08/12 09:41:45;;;;;;;12.55;2.22;;;;;;;17.35;62.71;99858.59;5175558;27;20504;-61
2021/08/12 09:44:33;;;;;;;9.95;2.20;;;;;;;17.35;62.85;99853.25;5175355;27;20080;-61
2021/08/12 09:47:01;;;;;;;13.15;2.33;;;;;;;17.34;62.50;99857.75;5164611;27;20117;-61
2021/08/12 09:49:56;;;;;;;8.05;2.03;;;;;;;17.33;62.76;99857.97;5154445;27;20022;-62
2021/08/12 09:52:27;;;;;;;7.68;2.03;;;;;;;17.32;62.84;99862.50;5154019;27;20046;-61
2021/08/12 09:55:05;;;;;;;10.07;2.92;;;;;;;17.33;62.70;99877.50;5154757;27;20446;-61
2021/08/12 09:58:01;;;;;;;9.32;2.22;;;;;;;17.35;62.98;99872.78;5136293;27;20473;-61
2021/08/12 10:00:39;;;;;;;7.88;2.15;;;;;;;17.33;62.77;99868.66;5149773;27;20043;-61
2021/08/12 10:03:26;;;;;;;12.23;2.45;;;;;;;17.35;62.54;99879.97;5143969;27;20049;-62
2021/08/12 10:05:55;;;;;;;14.13;2.60;;;;;;;17.34;62.68;99878.31;5156416;27;20034;-61
2021/08/12 10:08:27;;;;;;;5.55;1.77;;;;;;;17.35;62.57;99869.28;5135542;27;20039;-62
2021/08/12 10:10:55;;;;;;;12.23;2.72;;;;;;;17.34;62.33;99875.66;5153835;27;20046;-61
2021/08/12 10:13:20;;;;;;;10.63;2.13;;;;;;;17.34;62.54;99891.69;5135330;27;20038;-60
2021/08/12 10:15:50;;;;;;;10.80;2.38;;;;;;;17.35;62.93;99890.66;5153906;27;20031;-61
2021/08/12 10:18:19;;;;;;;13.48;2.42;;;;;;;17.37;62.79;99888.59;5140612;27;20042;-61
2021/08/12 10:20:46;;;;;;;9.77;2.20;;;;;;;17.38;62.90;99892.06;5132590;27;20108;-60
2021/08/12 10:23:13;;;;;;;11.43;2.42;;;;;;;17.37;62.96;99891.28;5153808;27;20061;-61
2021/08/12 10:25:40;;;;;;;10.07;2.15;;;;;;;17.38;63.24;99892.91;5153772;27;20054;-61
2021/08/12 10:28:08;;;;;;;7.93;2.08;;;;;;;17.37;63.20;99885.94;5135057;27;20042;-61
2021/08/12 10:30:35;;;;;;;7.45;2.92;;;;;;;17.37;63.06;99888.59;5154359;27;20485;-61
2021/08/12 10:33:04;;;;;;;13.48;3.35;;;;;;;17.37;63.11;99883.25;5153574;27;20431;-61
2021/08/12 10:35:32;;;;;;;9.52;2.45;;;;;;;17.35;63.61;99880.78;5157170;27;20035;-61
2021/08/12 10:37:59;;;;;;;10.35;2.35;;;;;;;17.36;63.42;99881.59;5166674;27;20033;-61
2021/08/12 10:40:28;;;;;;;11.73;2.53;;;;;;;17.36;63.45;99874.41;5135007;27;20030;-60
2021/08/12 10:42:57;;;;;;;10.85;1.98;;;;;;;17.36;63.70;99890.44;5135198;27;20023;-61
2021/08/12 10:45:24;;;;;;;11.20;3.15;;;;;;;17.37;63.74;99880.59;5132221;27;20035;-60
2021/08/12 10:47:55;;;;;;;8.77;2.53;;;;;;;17.38;64.49;99878.72;5126019;27;20489;-61
2021/08/12 10:50:24;;;;;;;8.57;2.95;;;;;;;17.38;64.92;99874.22;5149408;27;20034;-61
2021/08/12 10:53:01;;;;;;;10.93;2.67;;;;;;;17.36;65.85;99870.91;5156566;27;20113;-61
2021/08/12 10:55:28;;;;;;;13.45;2.80;;;;;;;17.37;66.22;99872.56;5166081;27;20495;-61
2021/08/12 11:00:53;;;;;;;10.98;2.67;;;;;;;17.37;66.97;99869.91;5154648;27;20114;-61
2021/08/12 11:03:34;;;;;;;11.00;2.60;;;;;;;17.38;67.98;99868.03;5159174;27;20549;-61
2021/08/12 11:06:03;;;;;;;11.10;3.30;;;;;;;17.38;67.58;99874.22;5133384;27;20397;-61
2021/08/12 11:08:54;;;;;;;11.85;3.45;;;;;;;17.40;67.90;99880.19;5133688;27;20046;-62
2021/08/12 11:11:26;;;;;;;17.20;3.75;;;;;;;17.39;68.22;99877.72;5116603;27;20041;-61
2021/08/12 11:14:01;;;;;;;13.40;3.50;;;;;;;17.41;69.68;99883.66;5160311;27;20054;-62
2021/08/12 11:16:49;;;;;;;;;;;;;;;17.43;71.47;99887.78;5164503;27;20062;-61
2021/08/12 11:19:21;;;;;;;12.10;3.00;;;;;;;17.46;70.43;99887.38;5154234;27;19915;-60
2021/08/12 11:21:48;;;;;;;9.90;3.17;;;;;;;17.45;70.92;99892.94;5142770;27;20034;-59
2021/08/12 11:24:22;;;;;;;11.32;2.75;;;;;;;17.46;70.13;99881.22;5156079;27;20031;-60
2021/08/12 11:26:48;;;;;;;12.00;3.22;;;;;;;17.47;70.91;99896.22;5152315;27;20086;-59
2021/08/12 11:29:29;;;;;;;11.23;3.00;;;;;;;17.46;71.43;99898.06;5152532;27;20118;-59
2021/08/12 11:32:08;;;;;;;13.68;2.85;;;;;;;17.48;71.96;99893.34;5118605;27;20412;-59
2021/08/12 11:34:42;;;;;;;13.77;3.08;;;;;;;17.50;72.25;99892.31;5152401;27;20031;-60
2021/08/12 11:37:22;;;;;;;10.43;2.85;;;;;;;17.49;72.82;99886.13;5152709;27;20039;-60